Time;durP1;ratioP1;P1;durP2;ratioP2;P2;SDS_P1;SDS_P2;PMS_P1;PMS_P2;Temp;Humidity;BMP_temperature;BMP_pressure;BME280_temperature;BME280_humidity;BME280_pressure;Samples;Min_cycle;Max_cycle;Signal;HPM_P1;HPM_P2
2021/12/21 00:00:11;;;;;;;;;;;;;;;-2.00;84.33;97158.56;5093876;28;20032;-74
2021/12/21 00:02:36;;;;;;;;;;;;;;;-2.01;84.58;97161.28;5095535;28;19951;-74
2021/12/21 00:05:03;;;;;;;;;;;;;;;-2.00;84.54;97161.13;5095053;28;20312;-74
2021/12/21 00:07:29;;;;;;;;;;;;;;;-2.02;84.82;97163.00;5095196;28;20437;-74
2021/12/21 00:09:55;;;;;;;;;;;;;;;-2.06;85.20;97157.31;5095628;28;19999;-74
2021/12/21 00:12:24;;;;;;;;;;;;;;;-2.07;85.98;97160.81;5094896;28;20424;-74
2021/12/21 00:15:00;;;;;;;;;;;;;;;-2.10;86.30;97155.91;5094885;28;20442;-75
2021/12/21 00:17:48;;;;;;;;;;;;;;;-2.11;86.52;97156.84;5078961;28;19954;-75
2021/12/21 00:25:18;;;;;;;;;;;;;;;-2.08;85.97;97146.34;5093375;28;19962;-75
2021/12/21 00:27:48;;;;;;;;;;;;;;;-2.08;86.06;97148.06;5094812;28;19948;-74
2021/12/21 00:30:15;;;;;;;;;;;;;;;-2.10;85.99;97150.78;5094582;28;19958;-74
2021/12/21 00:32:41;;;;;;;;;;;;;;;-2.10;86.12;97137.94;5094617;28;20331;-74
2021/12/21 00:35:08;;;;;;;;;;;;;;;-2.10;86.19;97143.06;5094594;28;19948;-74
2021/12/21 00:37:34;;;;;;;;;;;;;;;-2.09;86.12;97144.69;5094469;28;19955;-73
2021/12/21 00:40:03;;;;;;;;;;;;;;;-2.07;86.41;97144.56;5094541;28;19981;-73
2021/12/21 00:42:29;;;;;;;;;;;;;;;-2.09;86.28;97142.13;5094462;28;19965;-74
2021/12/21 00:44:55;;;;;;;;;;;;;;;-2.09;86.23;97147.25;5094306;28;19997;-74
2021/12/21 00:47:21;;;;;;;;;;;;;;;-2.11;86.13;97140.63;5094067;28;20043;-74
2021/12/21 00:49:58;;;;;;;;;;;;;;;-2.16;86.02;97138.41;5094604;28;19953;-72
2021/12/21 00:52:25;;;;;;;;;;;;;;;-2.19;85.98;97137.84;5094374;28;20427;-73
2021/12/21 00:54:51;;;;;;;;;;;;;;;-2.20;85.63;97131.88;5094041;28;19984;-73
2021/12/21 00:57:17;;;;;;;;;;;;;;;-2.23;85.37;97139.00;5076060;28;20364;-75
2021/12/21 00:59:43;;;;;;;;;;;;;;;-2.26;85.66;97135.75;5094462;28;20425;-75
2021/12/21 01:02:09;;;;;;;;;;;;;;;-2.30;85.64;97131.78;5094040;28;19948;-74
2021/12/21 01:04:41;;;;;;;;;;;;;;;-2.32;85.91;97131.09;5094393;28;19953;-74
2021/12/21 01:10:06;;;;;;;;;;;;;;;-2.34;86.17;97127.81;5094283;28;19962;-74
2021/12/21 01:18:13;;;;;;;;;;;;;;;-2.33;85.67;97124.31;5093917;28;19952;-74
2021/12/21 01:28:17;;;;;;;;;;;;;;;-2.38;85.78;97134.13;5093765;28;19953;-74
2021/12/21 01:30:56;;;;;;;;;;;;;;;-2.39;85.59;97134.25;5082916;28;19955;-74
2021/12/21 01:36:02;;;;;;;;;;;;;;;-2.41;85.15;97131.00;5093648;28;20424;-74
2021/12/21 01:38:37;;;;;;;;;;;;;;;-2.43;84.91;97127.75;5093493;28;20434;-76
2021/12/21 01:41:11;;;;;;;;;;;;;;;-2.43;85.02;97131.13;5093983;28;19951;-74
2021/12/21 01:43:44;;;;;;;;;;;;;;;-2.44;84.78;97134.59;5093595;28;19962;-75
2021/12/21 01:51:55;;;;;;;;;;;;;;;-2.46;84.76;97131.34;5016411;28;19955;-75
2021/12/21 01:54:21;;;;;;;;;;;;;;;-2.49;84.70;97121.31;5080390;28;19980;-74
2021/12/21 01:56:47;;;;;;;;;;;;;;;-2.51;84.88;97118.06;5092402;28;19963;-73
2021/12/21 01:59:13;;;;;;;;;;;;;;;-2.52;84.93;97121.53;5097605;28;19961;-74
2021/12/21 02:01:39;;;;;;;;;;;;;;;-2.53;85.16;97112.22;5097388;28;20488;-74
2021/12/21 02:04:04;;;;;;;;;;;;;;;-2.54;84.92;97120.84;5097926;28;19952;-74
2021/12/21 02:06:30;;;;;;;;;;;;;;;-2.57;84.53;97108.25;5097626;28;20059;-74
2021/12/21 02:08:57;;;;;;;;;;;;;;;-2.60;84.62;97113.63;5096308;28;19959;-74
2021/12/21 02:11:23;;;;;;;;;;;;;;;-2.61;84.57;97109.44;5097499;28;20420;-74
2021/12/21 02:13:50;;;;;;;;;;;;;;;-2.62;84.29;97115.50;5079086;28;19981;-75
2021/12/21 02:16:24;;;;;;;;;;;;;;;-2.62;84.15;97116.31;5097561;28;19947;-74
2021/12/21 02:19:02;;;;;;;;;;;;;;;-2.61;84.37;97112.00;5097233;28;20326;-74
2021/12/21 02:21:31;;;;;;;;;;;;;;;-2.61;83.98;97110.25;5097132;28;19958;-74
2021/12/21 02:24:03;;;;;;;;;;;;;;;-2.61;83.95;97117.94;5097271;28;19956;-74
2021/12/21 02:31:48;;;;;;;;;;;;;;;-2.62;84.12;97112.94;5097176;28;19950;-74
2021/12/21 02:34:14;;;;;;;;;;;;;;;-2.64;83.70;97102.78;5096631;28;19960;-74
2021/12/21 02:36:41;;;;;;;;;;;;;;;-2.67;83.32;97103.00;5096963;28;19948;-75
2021/12/21 02:39:07;;;;;;;;;;;;;;;-2.71;83.04;97096.47;5096833;28;19953;-76
2021/12/21 02:41:34;;;;;;;;;;;;;;;-2.75;83.09;97101.06;5096679;28;19962;-76
2021/12/21 02:43:59;;;;;;;;;;;;;;;-2.80;82.98;97092.88;5096494;28;19954;-75
2021/12/21 02:46:25;;;;;;;;;;;;;;;-2.83;82.69;97095.69;5096697;28;19950;-75
2021/12/21 02:48:52;;;;;;;;;;;;;;;-2.86;82.59;97099.31;5096982;28;19954;-74
2021/12/21 02:51:18;;;;;;;;;;;;;;;-2.89;82.53;97102.09;5096648;28;19953;-74
2021/12/21 02:53:44;;;;;;;;;;;;;;;-2.90;82.41;97102.22;5096492;28;20003;-75
2021/12/21 02:56:11;;;;;;;;;;;;;;;-2.94;82.34;97100.81;5096554;28;19957;-75
2021/12/21 02:58:37;;;;;;;;;;;;;;;-2.99;81.97;97092.66;5096350;28;19957;-75
2021/12/21 03:01:07;;;;;;;;;;;;;;;-3.04;82.02;97090.47;5078737;28;19950;-74
2021/12/21 03:03:33;;;;;;;;;;;;;;;-3.07;82.02;97091.50;5096292;28;19960;-75
2021/12/21 03:06:01;;;;;;;;;;;;;;;-3.08;81.99;97094.19;5096057;28;19946;-75
2021/12/21 03:08:39;;;;;;;;;;;;;;;-3.10;82.09;97098.63;5095377;28;20330;-74
2021/12/21 03:11:13;;;;;;;;;;;;;;;-3.14;82.65;97086.94;5086237;28;19950;-75
2021/12/21 03:16:43;;;;;;;;;;;;;;;-3.20;82.10;97098.47;5027309;28;19955;-74
2021/12/21 03:19:10;;;;;;;;;;;;;;;-3.21;82.29;97099.44;5078979;28;19968;-75
2021/12/21 03:21:36;;;;;;;;;;;;;;;-3.23;82.43;97095.31;5095342;28;20037;-74
2021/12/21 03:24:02;;;;;;;;;;;;;;;-3.26;82.22;97101.50;5095820;28;19958;-75
2021/12/21 03:26:28;;;;;;;;;;;;;;;-3.29;82.32;97094.06;5077683;28;19989;-74
2021/12/21 03:28:54;;;;;;;;;;;;;;;-3.30;82.55;97095.81;5095882;28;20405;-74
2021/12/21 03:31:21;;;;;;;;;;;;;;;-3.31;82.36;97096.72;5094843;28;19954;-73
2021/12/21 03:33:47;;;;;;;;;;;;;;;-3.31;83.08;97098.47;5096177;28;19971;-73
2021/12/21 03:36:13;;;;;;;;;;;;;;;-3.33;83.14;97096.03;5095613;28;19964;-73
2021/12/21 03:38:42;;;;;;;;;;;;;;;-3.35;83.11;97090.19;5095579;28;20385;-73
2021/12/21 03:41:13;;;;;;;;;;;;;;;-3.37;82.93;97099.75;5095422;28;19957;-73
2021/12/21 03:43:39;;;;;;;;;;;;;;;-3.39;82.89;97099.03;5094703;28;20330;-76
2021/12/21 03:46:11;;;;;;;;;;;;;;;-3.41;82.39;97090.66;5060743;28;19953;-75
2021/12/21 03:48:37;;;;;;;;;;;;;;;-3.42;82.94;97091.59;5095566;28;19956;-74
2021/12/21 03:51:04;;;;;;;;;;;;;;;-3.41;82.59;97102.66;5095177;28;19954;-74
2021/12/21 03:53:30;;;;;;;;;;;;;;;-3.44;82.79;97084.94;5094971;28;19982;-74
2021/12/21 03:56:40;;;;;;;;;;;;;;;-3.45;82.67;97089.25;5094144;28;19949;-73
2021/12/21 03:58:44;;;;;;;;;;;;;;;-3.47;82.57;97086.78;5086651;28;19960;-74
2021/12/21 04:01:10;;;;;;;;;;;;;;;-3.48;82.86;97087.72;5095641;28;20316;-74
2021/12/21 04:03:36;;;;;;;;;;;;;;;-3.49;82.46;97088.66;5095153;28;19954;-73
2021/12/21 04:06:03;;;;;;;;;;;;;;;-3.50;82.74;97088.78;5095152;28;20472;-74
2021/12/21 04:08:28;;;;;;;;;;;;;;;-3.51;83.04;97087.13;5094846;28;19953;-74
2021/12/21 04:10:54;;;;;;;;;;;;;;;-3.51;82.58;97090.53;5095379;28;19952;-74
2021/12/21 04:13:20;;;;;;;;;;;;;;;-3.50;82.49;97091.34;5094838;28;19968;-74
2021/12/21 04:15:50;;;;;;;;;;;;;;;-3.49;82.59;97092.97;5094932;28;19955;-74
2021/12/21 04:18:19;;;;;;;;;;;;;;;-3.49;83.00;97096.34;5094806;28;19960;-74
2021/12/21 04:20:45;;;;;;;;;;;;;;;-3.47;82.75;97096.25;5095249;28;20301;-74
2021/12/21 04:23:11;;;;;;;;;;;;;;;-3.47;82.64;97099.59;5094640;28;19963;-74
2021/12/21 04:25:37;;;;;;;;;;;;;;;-3.45;82.45;97099.50;5094967;28;19964;-74
2021/12/21 04:28:03;;;;;;;;;;;;;;;-3.43;82.52;97099.41;5094578;28;19995;-74
2021/12/21 04:30:29;;;;;;;;;;;;;;;-3.42;82.67;97104.41;5076671;28;19952;-74
2021/12/21 04:32:55;;;;;;;;;;;;;;;-3.44;82.56;97101.16;5094318;28;19946;-74
2021/12/21 04:35:21;;;;;;;;;;;;;;;-3.46;82.22;97095.31;5093024;28;19965;-74
2021/12/21 04:37:53;;;;;;;;;;;;;;;-3.49;81.99;97092.97;5095036;28;20333;-74
2021/12/21 04:40:22;;;;;;;;;;;;;;;-3.52;82.31;97086.31;5094466;28;19965;-74
2021/12/21 04:42:48;;;;;;;;;;;;;;;-3.54;82.13;97084.81;5094217;28;19954;-76
2021/12/21 04:45:14;;;;;;;;;;;;;;;-3.57;81.97;97080.75;5094567;28;20366;-74
2021/12/21 04:47:39;;;;;;;;;;;;;;;-3.59;82.28;97080.03;5094387;28;19958;-73
2021/12/21 04:50:06;;;;;;;;;;;;;;;-3.59;82.10;97084.31;5094231;28;20421;-73
2021/12/21 04:52:32;;;;;;;;;;;;;;;-3.61;82.25;97088.75;5094332;28;20340;-73
2021/12/21 04:54:58;;;;;;;;;;;;;;;-3.60;82.26;97091.22;5094035;28;19978;-73
2021/12/21 04:57:24;;;;;;;;;;;;;;;-3.60;81.87;97092.97;5094417;28;19964;-73
2021/12/21 04:59:50;;;;;;;;;;;;;;;-3.62;81.72;97090.50;5093958;28;19950;-73
2021/12/21 05:02:17;;;;;;;;;;;;;;;-3.62;81.99;97087.94;5075675;28;20471;-74
2021/12/21 05:04:43;;;;;;;;;;;;;;;-3.65;81.84;97083.06;5093916;28;19955;-74
2021/12/21 05:07:09;;;;;;;;;;;;;;;-3.66;81.92;97096.78;5094513;28;19958;-74
2021/12/21 05:09:44;;;;;;;;;;;;;;;-3.65;82.17;97082.22;5093909;28;20031;-74
2021/12/21 05:12:12;;;;;;;;;;;;;;;-3.67;82.52;97088.28;5094164;28;19960;-74
2021/12/21 05:14:39;;;;;;;;;;;;;;;-3.68;82.43;97084.06;5093897;28;19966;-74
2021/12/21 05:17:05;;;;;;;;;;;;;;;-3.70;82.30;97083.38;5093776;28;19974;-74
2021/12/21 05:19:32;;;;;;;;;;;;;;;-3.71;82.16;97089.44;5093680;28;19960;-75
2021/12/21 05:21:58;;;;;;;;;;;;;;;-3.73;82.26;97082.78;5094804;28;20428;-74
2021/12/21 05:24:24;;;;;;;;;;;;;;;-3.74;82.29;97078.59;5094013;28;19956;-74
2021/12/21 05:26:49;;;;;;;;;;;;;;;-3.76;81.66;97065.91;5093706;28;19955;-75
2021/12/21 05:29:15;;;;;;;;;;;;;;;-3.79;81.98;97076.38;5093573;28;19962;-74
2021/12/21 05:31:41;;;;;;;;;;;;;;;-3.79;82.07;97070.44;5093436;28;19999;-74
2021/12/21 05:34:07;;;;;;;;;;;;;;;-3.81;81.90;97067.97;5075331;28;20318;-74
2021/12/21 05:36:33;;;;;;;;;;;;;;;-3.84;81.69;97070.78;5093482;28;19953;-74
2021/12/21 05:39:03;;;;;;;;;;;;;;;-3.84;82.46;97059.69;5093637;28;20046;-74
2021/12/21 05:41:46;;;;;;;;;;;;;;;-3.84;82.94;97059.69;5093688;28;19954;-74
2021/12/21 05:44:13;;;;;;;;;;;;;;;-3.83;82.54;97061.34;5071145;28;19960;-75
2021/12/21 05:46:39;;;;;;;;;;;;;;;-3.83;83.03;97054.47;5093621;28;19957;-74
2021/12/21 05:49:05;;;;;;;;;;;;;;;-3.82;83.09;97057.81;5093424;28;20359;-75
2021/12/21 05:51:30;;;;;;;;;;;;;;;-3.82;83.12;97056.09;5093522;28;19958;-74
2021/12/21 05:53:56;;;;;;;;;;;;;;;-3.81;82.64;97057.72;5093499;28;19979;-74
2021/12/21 05:56:23;;;;;;;;;;;;;;;-3.83;82.60;97056.22;5093420;28;19958;-74
2021/12/21 05:58:48;;;;;;;;;;;;;;;-3.84;82.45;97062.25;5093883;28;19967;-74
2021/12/21 06:01:15;;;;;;;;;;;;;;;-3.85;82.67;97061.44;5093164;28;19955;-75
2021/12/21 06:03:41;;;;;;;;;;;;;;;-3.87;82.11;97073.53;5093485;28;19949;-75
2021/12/21 06:06:12;;;;;;;;;;;;;;;-3.89;81.92;97076.22;5093383;28;20340;-74
2021/12/21 06:08:38;;;;;;;;;;;;;;;-3.91;81.92;97075.50;5093316;28;19959;-74
2021/12/21 06:11:06;;;;;;;;;;;;;;;-3.94;81.93;97075.75;5093412;28;19962;-74
2021/12/21 06:14:02;;;;;;;;;;;;;;;-3.95;81.53;97073.28;5093518;28;20422;-74
2021/12/21 06:27:28;;;;;;;;;;;;;;;-4.05;81.84;97068.03;5093268;28;20308;-74
2021/12/21 06:29:54;;;;;;;;;;;;;;;-4.05;81.79;97067.19;5092751;28;19950;-73
2021/12/21 06:32:20;;;;;;;;;;;;;;;-4.07;81.77;97067.31;5092832;28;19963;-74
2021/12/21 06:34:46;;;;;;;;;;;;;;;-4.09;81.43;97062.31;5091920;28;19978;-75
2021/12/21 06:37:12;;;;;;;;;;;;;;;-4.10;82.25;97068.34;5093001;28;20327;-73
2021/12/21 06:39:39;;;;;;;;;;;;;;;-4.10;81.92;97076.03;5093123;28;19989;-73
2021/12/21 06:42:08;;;;;;;;;;;;;;;-4.14;81.46;97066.13;5092757;28;19950;-74
2021/12/21 06:44:34;;;;;;;;;;;;;;;-4.16;81.25;97063.69;5095487;28;19958;-74
2021/12/21 06:52:19;;;;;;;;;;;;;;;-4.34;81.44;97068.38;5096604;28;19951;-74
2021/12/21 06:54:45;;;;;;;;;;;;;;;-4.37;81.97;97071.13;5096282;28;19985;-74
2021/12/21 06:57:11;;;;;;;;;;;;;;;-4.38;82.05;97069.53;5096115;28;20038;-75
2021/12/21 06:59:37;;;;;;;;;;;;;;;-4.37;82.21;97073.69;5096503;28;19967;-75
2021/12/21 07:02:03;;;;;;;;;;;;;;;-4.36;81.70;97071.97;5078000;28;19993;-74
2021/12/21 07:04:29;;;;;;;;;;;;;;;-4.36;81.53;97070.22;5096233;28;19965;-74
2021/12/21 07:06:57;;;;;;;;;;;;;;;-4.36;81.76;97074.53;5096101;28;19960;-75
2021/12/21 07:12:13;;;;;;;;;;;;;;;-4.37;81.57;97072.88;5095847;28;19978;-74
2021/12/21 07:20:01;;;;;;;;;;;;;;;-4.40;81.32;97068.00;5095730;28;19949;-74
2021/12/21 07:22:27;;;;;;;;;;;;;;;-4.42;81.19;97069.84;5095817;28;19953;-75
2021/12/21 07:24:53;;;;;;;;;;;;;;;-4.44;81.80;97079.38;5095688;28;20498;-74
2021/12/21 07:27:19;;;;;;;;;;;;;;;-4.45;81.75;97078.56;5095943;28;20004;-74
2021/12/21 07:29:45;;;;;;;;;;;;;;;-4.45;81.75;97085.41;5095739;28;19967;-74
2021/12/21 07:32:11;;;;;;;;;;;;;;;-4.45;82.27;97078.56;5095466;28;19962;-75
2021/12/21 07:34:37;;;;;;;;;;;;;;;-4.42;82.19;97085.22;5077598;28;20483;-74
2021/12/21 07:37:05;;;;;;;;;;;;;;;-4.39;82.01;97096.06;5096029;28;19997;-74
2021/12/21 07:39:30;;;;;;;;;;;;;;;-4.36;82.50;97095.84;5095569;28;19956;-74
2021/12/21 07:41:56;;;;;;;;;;;;;;;-4.34;82.84;97085.50;5094949;28;19964;-74
2021/12/21 07:44:22;;;;;;;;;;;;;;;-4.29;82.97;97089.34;5095416;28;19955;-74
2021/12/21 07:46:48;;;;;;;;;;;;;;;-4.25;83.02;97084.00;5077365;28;19950;-74
2021/12/21 07:49:14;;;;;;;;;;;;;;;-4.20;83.63;97087.88;5095340;28;19955;-74
2021/12/21 07:51:40;;;;;;;;;;;;;;;-4.15;83.70;97088.38;5095471;28;20005;-74
2021/12/21 07:54:06;;;;;;;;;;;;;;;-4.06;83.84;97086.06;5095114;28;19988;-74
2021/12/21 07:56:32;;;;;;;;;;;;;;;-3.77;93.24;97089.06;5094441;28;19961;-74
2021/12/21 07:58:58;;;;;;;;;;;;;;;-3.20;97.82;97087.41;5095557;28;19953;-75
2021/12/21 08:01:24;;;;;;;;;;;;;;;-2.90;88.52;97087.66;5095019;28;19966;-74
2021/12/21 08:03:52;;;;;;;;;;;;;;;-2.60;85.25;97090.50;5095152;28;19958;-74
2021/12/21 08:06:19;;;;;;;;;;;;;;;-2.33;83.37;97096.06;5094980;28;20316;-74
2021/12/21 08:08:46;;;;;;;;;;;;;;;-2.07;82.56;97091.41;5095016;28;20326;-75
2021/12/21 08:11:27;;;;;;;;;;;;;;;-1.81;81.67;97092.81;5095168;28;19956;-75
2021/12/21 08:13:54;;;;;;;;;;;;;;;-1.36;94.84;97090.81;5094691;28;19945;-73
2021/12/21 08:16:20;;;;;;;;;;;;;;;-0.29;100.00;97088.59;5094946;28;19958;-74
2021/12/21 08:18:46;;;;;;;;;;;;;;;0.43;86.89;97083.16;5094949;28;19957;-75
2021/12/21 08:21:16;;;;;;;;;;;;;;;0.67;79.66;97087.84;5094977;28;20444;-74
2021/12/21 08:23:42;;;;;;;;;;;;;;;0.98;84.05;97091.84;5094997;28;19960;-75
2021/12/21 08:26:08;;;;;;;;;;;;;;;1.16;77.83;97096.28;5094665;28;20327;-74
2021/12/21 08:28:34;;;;;;;;;;;;;;;1.10;76.14;97089.09;5094444;28;19961;-74
2021/12/21 08:31:00;;;;;;;;;;;;;;;0.99;75.94;97098.66;5094468;28;20427;-75
2021/12/21 08:33:26;;;;;;;;;;;;;;;0.91;75.95;97100.31;5094233;28;20050;-75
2021/12/21 08:35:51;;;;;;;;;;;;;;;0.76;75.76;97105.91;5094405;28;20547;-74
2021/12/21 08:38:19;;;;;;;;;;;;;;;0.57;76.24;97100.81;5094420;28;20001;-74
2021/12/21 08:40:49;;;;;;;;;;;;;;;0.43;75.89;97102.03;5094474;28;19960;-75
2021/12/21 08:43:17;;;;;;;;;;;;;;;0.29;73.99;97105.03;5094040;28;19953;-74
2021/12/21 08:45:44;;;;;;;;;;;;;;;0.09;72.90;97107.63;5094719;28;20322;-74
2021/12/21 08:48:11;;;;;;;;;;;;;;;-0.02;73.26;97113.72;5094361;28;19985;-74
2021/12/21 08:50:38;;;;;;;;;;;;;;;-0.08;73.37;97103.97;5093971;28;19975;-74
2021/12/21 08:53:04;;;;;;;;;;;;;;;0.04;82.20;97111.53;5094030;28;20409;-74
2021/12/21 08:55:30;;;;;;;;;;;;;;;0.50;76.82;97110.03;5093711;28;19980;-74
2021/12/21 08:57:59;;;;;;;;;;;;;;;0.70;74.28;97096.16;5093812;28;19963;-74
2021/12/21 09:00:25;;;;;;;;;;;;;;;0.81;74.02;97092.59;5093743;28;19959;-74
2021/12/21 09:02:51;;;;;;;;;;;;;;;0.86;74.19;97094.72;5093990;28;20319;-74
2021/12/21 09:05:20;;;;;;;;;;;;;;;0.91;75.32;97089.97;5093862;28;19952;-75
2021/12/21 09:07:48;;;;;;;;;;;;;;;0.88;73.56;97091.06;5093859;28;19957;-75
2021/12/21 09:10:14;;;;;;;;;;;;;;;0.87;74.10;97083.47;5093801;28;19970;-75
2021/12/21 09:12:41;;;;;;;;;;;;;;;0.89;74.05;97084.94;5093972;28;20314;-74
2021/12/21 09:15:10;;;;;;;;;;;;;;;0.99;73.92;97090.91;5093657;28;19982;-75
2021/12/21 09:17:36;;;;;;;;;;;;;;;1.13;72.82;97094.75;5093769;28;19961;-74
2021/12/21 09:20:03;;;;;;;;;;;;;;;1.25;73.85;97098.00;5059194;28;19964;-74
2021/12/21 09:22:32;;;;;;;;;;;;;;;1.33;71.70;97097.28;5075847;28;20443;-75
2021/12/21 09:24:59;;;;;;;;;;;;;;;1.44;72.86;97101.44;5094010;28;19966;-75
2021/12/21 09:27:25;;;;;;;;;;;;;;;1.52;72.42;97098.94;5094233;28;20032;-76
2021/12/21 09:29:51;;;;;;;;;;;;;;;1.56;71.59;97098.50;5093557;28;19972;-76
2021/12/21 09:32:18;;;;;;;;;;;;;;;1.66;72.06;97095.03;5093805;28;20329;-76
2021/12/21 09:34:45;;;;;;;;;;;;;;;1.74;69.65;97098.56;5093429;28;19975;-76
2021/12/21 09:37:17;;;;;;;;;;;;;;;1.84;70.54;97101.06;5093570;28;19956;-75
2021/12/21 09:39:46;;;;;;;;;;;;;;;2.03;79.37;97107.88;5093783;28;19967;-75
2021/12/21 09:42:13;;;;;;;;;;;;;;;2.21;69.86;97097.53;5093890;28;19964;-75
2021/12/21 09:44:39;;;;;;;;;;;;;;;1.78;67.68;97075.78;5093604;28;19953;-75
2021/12/21 09:47:06;;;;;;;;;;;;;;;1.38;69.77;97090.72;5093481;28;19954;-74
2021/12/21 09:49:32;;;;;;;;;;;;;;;1.19;69.70;97090.81;5093795;28;19952;-73
2021/12/21 09:51:58;;;;;;;;;;;;;;;1.16;71.75;97088.53;5093453;28;19962;-74
2021/12/21 09:54:24;;;;;;;;;;;;;;;1.11;70.57;97085.53;5093360;28;20027;-75
2021/12/21 09:56:50;;;;;;;;;;;;;;;1.00;71.16;97089.13;5075492;28;19969;-74
2021/12/21 09:59:16;;;;;;;;;;;;;;;0.91;70.24;97085.63;5093558;28;19955;-74
2021/12/21 10:01:43;;;;;;;;;;;;;;;0.79;70.78;97084.97;5093193;28;19974;-74
2021/12/21 10:04:08;;;;;;;;;;;;;;;0.86;71.86;97089.56;5093139;28;19960;-74
2021/12/21 10:06:49;;;;;;;;;;;;;;;0.90;71.20;97090.91;5093413;28;19962;-74
2021/12/21 10:09:16;;;;;;;;;;;;;;;1.12;76.36;97085.41;5093352;28;20340;-74
2021/12/21 10:11:43;;;;;;;;;;;;;;;2.07;90.61;97083.31;5093177;28;19945;-74
2021/12/21 10:14:10;;;;;;;;;;;;;;;3.27;82.76;97076.63;5093367;28;19962;-74
2021/12/21 10:16:36;;;;;;;;;;;;;;;3.96;72.95;97072.09;5093135;28;19952;-73
2021/12/21 10:19:02;;;;;;;;;;;;;;;3.83;69.98;97075.19;5093968;28;19960;-73
2021/12/21 10:21:28;;;;;;;;;;;;;;;3.52;66.31;97051.59;5096991;28;19954;-75
2021/12/21 10:23:57;;;;;;;;;;;;;;;3.27;66.18;97055.91;5096647;28;20304;-73
2021/12/21 10:26:23;;;;;;;;;;;;;;;3.04;66.11;97061.66;5096998;28;19969;-73
2021/12/21 10:28:50;;;;;;;;;;;;;;;2.87;66.71;97067.69;5097308;28;19956;-74
2021/12/21 10:31:25;;;;;;;;;;;;;;;2.83;67.47;97074.16;5096752;28;19971;-74
2021/12/21 10:33:53;;;;;;;;;;;;;;;2.76;65.43;97058.41;5097083;28;19952;-73
2021/12/21 10:36:19;;;;;;;;;;;;;;;2.59;65.47;97054.13;5096737;28;19966;-73
2021/12/21 10:38:51;;;;;;;;;;;;;;;2.50;66.51;97062.78;5097146;28;19966;-73
2021/12/21 10:41:34;;;;;;;;;;;;;;;2.55;68.13;97069.13;5097324;28;19957;-74
2021/12/21 10:44:05;;;;;;;;;;;;;;;2.68;69.17;97075.69;5088101;28;19959;-74
2021/12/21 10:46:37;;;;;;;;;;;;;;;2.71;70.01;97065.00;5097890;28;19956;-74
2021/12/21 10:49:37;;;;;;;;;;;;;;;2.73;70.42;97061.34;5084707;28;20318;-74
2021/12/21 10:52:07;;;;;;;;;;;;;;;2.73;70.33;97050.97;5053049;28;19963;-75
2021/12/21 10:54:39;;;;;;;;;;;;;;;2.81;70.05;97047.59;5096839;28;19985;-74
2021/12/21 10:57:10;;;;;;;;;;;;;;;2.85;71.63;97044.53;5097577;28;20404;-73
2021/12/21 10:59:37;;;;;;;;;;;;;;;2.84;70.66;97055.06;5096528;28;19951;-74
2021/12/21 11:02:04;;;;;;;;;;;;;;;2.81;71.62;97050.19;5095131;28;19963;-74
2021/12/21 11:04:34;;;;;;;;;;;;;;;2.69;72.50;97048.81;5096571;28;19970;-74
2021/12/21 11:07:09;;;;;;;;;;;;;;;2.61;71.50;97045.22;5078504;28;19966;-74
2021/12/21 11:09:35;;;;;;;;;;;;;;;2.67;71.13;97045.56;5096246;28;19955;-74
2021/12/21 11:12:01;;;;;;;;;;;;;;;2.68;70.52;97042.84;5096744;28;19952;-73
2021/12/21 11:14:29;;;;;;;;;;;;;;;2.74;69.94;97039.63;5095958;28;19964;-74
2021/12/21 11:16:55;;;;;;;;;;;;;;;2.80;70.23;97027.84;5096205;28;19960;-73
2021/12/21 11:19:24;;;;;;;;;;;;;;;2.83;70.00;97035.31;5077958;28;19962;-74
2021/12/21 11:21:53;;;;;;;;;;;;;;;2.86;69.92;97027.25;5078115;28;19965;-73
2021/12/21 11:24:19;;;;;;;;;;;;;;;2.92;71.73;97026.63;5096173;28;19956;-76
2021/12/21 11:26:46;;;;;;;;;;;;;;;2.95;69.90;97026.28;5077985;28;19962;-74
2021/12/21 11:29:13;;;;;;;;;;;;;;;2.97;69.58;97023.56;5077429;28;19968;-73
2021/12/21 11:31:41;;;;;;;;;;;;;;;2.99;69.91;97016.44;5095086;28;19959;-74
2021/12/21 11:34:13;;;;;;;;;;;;;;;3.07;68.68;97020.81;5095647;28;19967;-74
2021/12/21 11:39:34;;;;;;;;;;;;;;;3.10;68.59;97018.75;5096205;28;19948;-74
2021/12/21 11:42:00;;;;;;;;;;;;;;;3.14;69.04;97012.28;5095957;28;20001;-74
2021/12/21 11:44:32;;;;;;;;;;;;;;;3.07;66.21;96998.34;5095667;28;19959;-74
2021/12/21 11:47:01;;;;;;;;;;;;;;;2.92;69.22;97008.47;5095987;28;19964;-74
2021/12/21 11:49:34;;;;;;;;;;;;;;;2.90;69.04;97013.00;5095552;28;19956;-74
2021/12/21 11:52:07;;;;;;;;;;;;;;;2.91;68.64;97017.22;5095517;28;19951;-74
2021/12/21 11:54:41;;;;;;;;;;;;;;;2.87;68.68;97005.53;5095256;28;19983;-75
2021/12/21 11:57:07;;;;;;;;;;;;;;;2.78;69.45;96998.69;5095668;28;19953;-74
2021/12/21 11:59:33;;;;;;;;;;;;;;;2.68;70.31;96998.81;5095641;28;20011;-73
2021/12/21 12:02:01;;;;;;;;;;;;;;;2.58;69.95;96988.59;5095042;28;20037;-74
2021/12/21 12:04:27;;;;;;;;;;;;;;;2.52;69.87;96996.97;5095384;28;20429;-73
2021/12/21 12:06:56;;;;;;;;;;;;;;;2.44;71.05;96999.50;5095001;28;20028;-75
2021/12/21 12:09:30;;;;;;;;;;;;;;;2.39;70.47;96999.97;5079221;28;19963;-74
2021/12/21 12:12:05;;;;;;;;;;;;;;;2.39;70.78;97004.31;5094605;28;19963;-74
2021/12/21 12:14:31;;;;;;;;;;;;;;;2.44;71.51;96996.91;5094059;28;19957;-78
2021/12/21 12:16:58;;;;;;;;;;;;;;;2.42;70.93;97007.41;5094776;28;20052;-73
2021/12/21 12:19:30;;;;;;;;;;;;;;;2.44;70.81;97000.31;5094903;28;20353;-74
2021/12/21 12:21:57;;;;;;;;;;;;;;;2.49;71.13;97007.59;5094806;28;19957;-73
2021/12/21 12:24:24;;;;;;;;;;;;;;;2.50;70.96;97009.25;5094473;28;20313;-73
2021/12/21 12:26:59;;;;;;;;;;;;;;;2.53;70.71;97008.13;5094832;28;20446;-74
2021/12/21 12:29:25;;;;;;;;;;;;;;;2.54;70.69;97004.56;5094430;28;20320;-74
2021/12/21 12:32:05;;;;;;;;;;;;;;;2.53;71.27;96990.81;5094557;28;19955;-74
2021/12/21 12:34:32;;;;;;;;;;;;;;;2.55;70.44;96993.25;5094298;28;19958;-74
2021/12/21 12:36:59;;;;;;;;;;;;;;;2.46;71.02;96992.41;5094072;28;20326;-74
2021/12/21 12:39:29;;;;;;;;;;;;;;;2.35;69.70;96987.44;5094137;28;20316;-73
2021/12/21 12:42:25;;;;;;;;;;;;;;;2.34;71.21;96984.06;5094161;28;19954;-74
2021/12/21 12:45:10;;;;;;;;;;;;;;;2.28;69.99;96976.91;5076999;28;20309;-74
2021/12/21 12:47:43;;;;;;;;;;;;;;;2.24;70.45;96983.34;5094193;28;19951;-74
2021/12/21 12:50:16;;;;;;;;;;;;;;;2.19;71.66;96981.22;5092742;28;19961;-73
2021/12/21 12:53:11;;;;;;;;;;;;;;;2.12;70.79;96976.78;5094084;28;20302;-74
2021/12/21 12:55:39;;;;;;;;;;;;;;;2.00;68.59;96968.47;5060290;28;19981;-74
2021/12/21 12:58:11;;;;;;;;;;;;;;;1.97;70.74;96976.53;5074456;28;19977;-75
2021/12/21 13:00:37;;;;;;;;;;;;;;;1.99;71.07;96984.94;5073857;28;19985;-74
2021/12/21 13:03:07;;;;;;;;;;;;;;;2.01;71.21;96970.91;5074062;28;19963;-74
2021/12/21 13:05:38;;;;;;;;;;;;;;;1.97;69.48;96967.00;5073620;28;19971;-74
2021/12/21 13:08:08;;;;;;;;;;;;;;;1.86;70.40;96975.00;5074079;28;19966;-74
2021/12/21 13:10:38;;;;;;;;;;;;;;;1.81;70.88;96967.69;5065711;28;19957;-74
2021/12/21 13:13:04;;;;;;;;;;;;;;;1.93;80.53;96964.84;5073454;28;19952;-74
2021/12/21 13:15:43;;;;;;;;;;;;;;;2.60;78.40;96959.91;5073625;28;20453;-74
2021/12/21 13:18:13;;;;;;;;;;;;;;;2.75;69.14;96958.41;5073518;28;19957;-74
2021/12/21 13:20:40;;;;;;;;;;;;;;;2.64;69.28;96961.25;5055950;28;19975;-74
2021/12/21 13:23:09;;;;;;;;;;;;;;;2.46;69.14;96968.25;5073379;28;20419;-73
2021/12/21 13:25:35;;;;;;;;;;;;;;;2.29;69.01;96972.53;5073509;28;19964;-74
2021/12/21 13:28:11;;;;;;;;;;;;;;;2.15;69.92;96979.91;5055774;28;19963;-74
2021/12/21 13:30:47;;;;;;;;;;;;;;;2.01;70.32;96980.44;5073194;28;19954;-74
2021/12/21 13:33:21;;;;;;;;;;;;;;;1.91;70.71;96985.72;5073786;28;20434;-74
2021/12/21 13:35:48;;;;;;;;;;;;;;;1.80;70.47;96975.59;5072423;28;20334;-74
2021/12/21 13:38:15;;;;;;;;;;;;;;;1.71;70.78;96989.44;5073381;28;19965;-74
2021/12/21 13:40:41;;;;;;;;;;;;;;;1.62;71.04;96984.19;5073498;28;19954;-74
2021/12/21 13:43:11;;;;;;;;;;;;;;;1.51;70.12;96978.41;5073141;28;19957;-74
2021/12/21 13:45:37;;;;;;;;;;;;;;;1.44;70.89;96983.34;5073397;28;19960;-74
2021/12/21 13:48:03;;;;;;;;;;;;;;;1.40;71.06;96982.03;5073137;28;19959;-74
2021/12/21 13:50:29;;;;;;;;;;;;;;;1.39;71.33;96983.81;5073488;28;19964;-74
2021/12/21 13:52:59;;;;;;;;;;;;;;;1.41;70.99;96986.25;5073012;28;20427;-75
2021/12/21 13:55:27;;;;;;;;;;;;;;;1.42;70.54;96978.34;5094352;28;19993;-74
2021/12/21 13:57:54;;;;;;;;;;;;;;;1.43;71.51;96974.00;5096674;28;19952;-74
2021/12/21 14:00:23;;;;;;;;;;;;;;;1.40;70.60;96977.66;5097624;28;19960;-75